Time;durP1;ratioP1;P1;durP2;ratioP2;P2;SDS_P1;SDS_P2;PMS_P1;PMS_P2;Temp;Humidity;BMP_temperature;BMP_pressure;BME280_temperature;BME280_humidity;BME280_pressure;Samples;Min_cycle;Max_cycle;Signal;HPM_P1;HPM_P2
2022/11/22 00:01:52;;;;;;;45.08;22.48;;;4.40;99.90;;;;;;5038313;28;20085;-81
2022/11/22 00:04:18;;;;;;;45.58;21.73;;;5.30;99.90;;;;;;5040568;28;20036;-82
2022/11/22 00:06:43;;;;;;;48.67;22.70;;;4.40;99.90;;;;;;5044564;28;20583;-84
2022/11/22 00:09:09;;;;;;;43.63;21.10;;;4.40;99.90;;;;;;5041483;28;20037;-82
2022/11/22 00:11:35;;;;;;;38.47;20.63;;;4.40;99.90;;;;;;5038066;28;20045;-81
2022/11/22 00:14:01;;;;;;;42.25;21.45;;;4.40;99.90;;;;;;5008295;28;20061;-81
2022/11/22 00:16:26;;;;;;;43.30;21.10;;;4.40;99.90;;;;;;5030630;28;20032;-84
2022/11/22 00:18:52;;;;;;;43.65;21.10;;;4.40;99.90;;;;;;5030351;28;20037;-83
2022/11/22 00:21:17;;;;;;;41.55;21.00;;;4.50;99.90;;;;;;5022878;28;20493;-83
2022/11/22 00:23:43;;;;;;;43.17;20.65;;;4.40;99.90;;;;;;5023400;28;20654;-84
2022/11/22 00:26:10;;;;;;;42.85;21.42;;;4.40;99.90;;;;;;5040415;28;20520;-81
2022/11/22 00:28:38;;;;;;;43.60;20.35;;;4.40;99.90;;;;;;5021743;28;20124;-82
2022/11/22 00:31:04;;;;;;;38.63;18.80;;;4.40;99.90;;;;;;5019998;28;20040;-83
2022/11/22 00:33:30;;;;;;;40.30;19.85;;;4.40;99.90;;;;;;5039026;28;20033;-82
2022/11/22 00:35:55;;;;;;;40.42;19.65;;;4.40;99.90;;;;;;5038447;28;20036;-83
2022/11/22 00:38:21;;;;;;;41.25;19.77;;;4.40;99.90;;;;;;5024134;28;20138;-81
2022/11/22 00:40:46;;;;;;;39.78;20.55;;;4.40;99.90;;;;;;5025533;28;20497;-82
2022/11/22 00:43:14;;;;;;;32.58;18.77;;;4.40;99.90;;;;;;5019444;28;20086;-82
2022/11/22 00:45:40;;;;;;;42.00;19.13;;;4.40;99.90;;;;;;5026246;28;20120;-83
2022/11/22 00:48:06;;;;;;;38.88;19.63;;;4.40;99.90;;;;;;5044643;28;20319;-83
2022/11/22 00:50:32;;;;;;;42.65;21.77;;;4.40;99.90;;;;;;5055473;28;20120;-83
2022/11/22 00:52:57;;;;;;;36.65;19.00;;;4.40;99.90;;;;;;5033375;28;20076;-82
2022/11/22 00:55:23;;;;;;;36.60;18.90;;;5.30;99.90;;;;;;5003883;28;20037;-82
2022/11/22 00:57:49;;;;;;;40.25;19.73;;;4.30;99.90;;;;;;5053658;28;20134;-83
2022/11/22 01:00:15;;;;;;;33.78;18.35;;;5.30;99.90;;;;;;5022399;28;20036;-84
2022/11/22 01:02:41;;;;;;;35.20;18.30;;;4.30;99.90;;;;;;5025042;28;20135;-85
2022/11/22 01:05:07;;;;;;;40.72;19.48;;;5.10;99.90;;;;;;5040915;28;20087;-83
2022/11/22 01:07:33;;;;;;;27.58;17.17;;;4.30;99.90;;;;;;5023303;28;20072;-83
2022/11/22 01:09:59;;;;;;;34.85;19.60;;;4.30;99.90;;;;;;5053417;28;20611;-80
2022/11/22 01:12:25;;;;;;;30.48;17.42;;;4.30;99.90;;;;;;5019721;28;20029;-82
2022/11/22 01:14:50;;;;;;;34.50;17.33;;;4.30;99.90;;;;;;5005224;28;20037;-83
2022/11/22 01:17:16;;;;;;;32.17;17.25;;;4.80;99.90;;;;;;5020036;28;20553;-83
2022/11/22 01:19:42;;;;;;;30.58;16.20;;;4.30;99.90;;;;;;5055600;28;20040;-83
2022/11/22 01:22:08;;;;;;;34.42;18.13;;;4.30;99.90;;;;;;5035954;28;20041;-82
2022/11/22 01:24:33;;;;;;;32.72;16.73;;;5.10;99.90;;;;;;5037950;28;20041;-83
2022/11/22 01:26:59;;;;;;;34.30;17.00;;;4.80;99.90;;;;;;5036199;28;20087;-83
2022/11/22 01:29:25;;;;;;;34.67;17.80;;;4.30;99.90;;;;;;5037558;28;20064;-84
2022/11/22 01:31:51;;;;;;;35.50;18.05;;;4.30;99.90;;;;;;5052800;28;20406;-82
2022/11/22 01:34:16;;;;;;;31.55;17.23;;;4.30;99.90;;;;;;5036939;28;20729;-80
2022/11/22 01:36:42;;;;;;;33.40;18.38;;;4.30;99.90;;;;;;5052661;28;20033;-83
2022/11/22 01:39:08;;;;;;;32.92;16.95;;;4.30;99.90;;;;;;5021578;28;20044;-85
2022/11/22 01:41:33;;;;;;;29.27;16.70;;;5.30;99.90;;;;;;5035196;28;20522;-80
2022/11/22 01:44:32;;;;;;;33.67;17.20;;;4.30;99.90;;;;;;5018647;28;20033;-83
2022/11/22 01:47:10;;;;;;;29.10;17.35;;;4.40;99.90;;;;;;5000034;28;20045;-83
2022/11/22 01:49:52;;;;;;;33.65;18.27;;;4.70;99.90;;;;;;5038642;28;20041;-83
2022/11/22 01:52:22;;;;;;;37.53;18.98;;;4.30;99.90;;;;;;5051864;28;20036;-82
2022/11/22 01:54:53;;;;;;;31.30;17.13;;;5.10;99.90;;;;;;5036094;28;20037;-84
2022/11/22 01:57:24;;;;;;;30.85;17.13;;;4.30;99.90;;;;;;5045669;28;20047;-85
2022/11/22 01:59:56;;;;;;;28.40;16.58;;;4.30;99.90;;;;;;5054371;28;20465;-83
2022/11/22 02:02:23;;;;;;;33.30;17.45;;;4.40;99.90;;;;;;5046296;28;20033;-87
2022/11/22 02:04:51;;;;;;;35.42;18.27;;;5.20;99.90;;;;;;5040117;28;20042;-83
2022/11/22 02:07:22;;;;;;;31.73;17.70;;;4.60;99.90;;;;;;5071913;28;20033;-84
2022/11/22 02:09:51;;;;;;;36.05;18.58;;;4.40;99.90;;;;;;5044979;28;20055;-83
2022/11/22 02:12:19;;;;;;;35.10;20.08;;;4.40;99.90;;;;;;5019396;28;20048;-82
2022/11/22 02:14:45;;;;;;;31.35;18.17;;;4.40;99.90;;;;;;5040957;28;20097;-83
2022/11/22 02:17:11;;;;;;;32.85;17.77;;;4.60;99.90;;;;;;5058192;28;20044;-84
2022/11/22 02:19:45;;;;;;;34.00;18.15;;;4.40;99.90;;;;;;5039945;28;20039;-84
2022/11/22 02:22:40;;;;;;;;;;;5.20;99.90;;;;;;5039142;28;20096;-83
2022/11/22 02:25:12;;;;;;;;;;;4.30;99.90;;;;;;5007980;28;19921;-83
2022/11/22 02:27:38;;;;;;;34.63;18.40;;;4.30;99.90;;;;;;5040489;28;20003;-83
2022/11/22 02:30:04;;;;;;;39.60;18.55;;;4.80;99.90;;;;;;5023081;28;20072;-83
2022/11/22 02:32:30;;;;;;;34.17;18.52;;;4.30;99.90;;;;;;5023560;28;20425;-83
2022/11/22 02:34:56;;;;;;;38.40;19.33;;;4.30;99.90;;;;;;5017194;28;20103;-83
2022/11/22 02:37:28;;;;;;;33.22;18.55;;;4.50;99.90;;;;;;5035835;28;20032;-85
2022/11/22 02:40:07;;;;;;;34.45;18.13;;;4.80;99.90;;;;;;5045603;28;20047;-83
2022/11/22 02:42:33;;;;;;;34.92;19.10;;;4.30;99.90;;;;;;5053190;28;20505;-82
2022/11/22 02:44:59;;;;;;;33.95;19.73;;;4.30;99.90;;;;;;5019798;28;20124;-81
2022/11/22 02:47:25;;;;;;;29.65;17.17;;;4.30;99.90;;;;;;5033283;28;20100;-84
2022/11/22 02:49:54;;;;;;;34.42;18.63;;;4.30;99.90;;;;;;4998034;28;20041;-84
2022/11/22 02:52:19;;;;;;;32.90;18.27;;;4.30;99.90;;;;;;5049699;28;20068;-82
2022/11/22 02:54:46;;;;;;;34.05;18.83;;;4.70;99.90;;;;;;5016253;28;20037;-83
2022/11/22 02:57:12;;;;;;;36.35;19.75;;;4.30;99.90;;;;;;5032344;28;20468;-83
2022/11/22 02:59:38;;;;;;;39.03;19.92;;;4.70;99.90;;;;;;5029826;28;20076;-83
2022/11/22 03:02:04;;;;;;;34.03;18.55;;;4.40;99.90;;;;;;5015868;28;20040;-82
2022/11/22 03:04:29;;;;;;;33.58;19.60;;;4.40;99.90;;;;;;5020012;28;20037;-82
2022/11/22 03:06:57;;;;;;;37.03;19.42;;;4.40;99.90;;;;;;5038418;28;20071;-83
2022/11/22 03:09:24;;;;;;;38.85;20.67;;;4.90;99.90;;;;;;5039267;28;20049;-83
2022/11/22 03:11:50;;;;;;;31.90;18.42;;;4.50;99.90;;;;;;5035114;28;20082;-83
2022/11/22 03:14:16;;;;;;;31.65;18.38;;;4.40;99.90;;;;;;5034764;28;20470;-84
2022/11/22 03:16:42;;;;;;;33.58;18.05;;;4.50;99.90;;;;;;5036101;28;20033;-83
2022/11/22 03:19:08;;;;;;;30.33;17.83;;;4.50;99.90;;;;;;5021649;28;20052;-82
2022/11/22 03:21:34;;;;;;;33.90;18.52;;;4.50;99.90;;;;;;5015960;28;20095;-83
2022/11/22 03:24:00;;;;;;;31.67;19.20;;;4.50;99.90;;;;;;5019042;28;20506;-83
2022/11/22 03:26:25;;;;;;;30.92;17.73;;;4.50;99.90;;;;;;5047412;28;20470;-81
2022/11/22 03:28:51;;;;;;;30.85;18.45;;;4.60;99.90;;;;;;5017618;28;20033;-83
2022/11/22 03:31:17;;;;;;;34.97;19.92;;;4.60;99.90;;;;;;5020615;28;20055;-80
2022/11/22 03:33:43;;;;;;;33.13;18.65;;;4.60;99.90;;;;;;5020867;28;20038;-81
2022/11/22 03:36:08;;;;;;;31.75;18.92;;;4.60;99.90;;;;;;5033894;28;20386;-82
2022/11/22 03:38:35;;;;;;;32.25;19.80;;;5.60;99.90;;;;;;5045083;28;20481;-83
2022/11/22 03:41:01;;;;;;;36.15;20.02;;;4.60;99.90;;;;;;5003801;28;20554;-83
2022/11/22 03:43:27;;;;;;;33.95;19.80;;;4.60;99.90;;;;;;5019589;28;20033;-81
2022/11/22 03:45:52;;;;;;;28.15;18.55;;;5.40;99.90;;;;;;5040756;28;20079;-83
2022/11/22 03:48:18;;;;;;;29.65;19.13;;;5.20;99.90;;;;;;5037611;28;20471;-84
2022/11/22 03:50:44;;;;;;;31.30;19.67;;;4.80;99.90;;;;;;5024756;28;20032;-84
2022/11/22 03:53:11;;;;;;;33.25;19.27;;;5.30;99.90;;;;;;5016305;28;20033;-81
2022/11/22 03:55:36;;;;;;;33.78;19.15;;;4.90;99.90;;;;;;5051355;28;20090;-82
2022/11/22 03:58:02;;;;;;;30.27;19.02;;;4.70;99.90;;;;;;5053394;28;20037;-83
2022/11/22 04:00:28;;;;;;;33.60;18.88;;;5.10;99.90;;;;;;5030569;28;20095;-83
2022/11/22 04:02:54;;;;;;;32.00;19.67;;;5.70;99.90;;;;;;5019351;28;20091;-82
2022/11/22 04:05:20;;;;;;;31.50;18.35;;;4.70;99.90;;;;;;5026972;28;20033;-85
2022/11/22 04:07:46;;;;;;;33.60;19.77;;;4.70;99.90;;;;;;5054925;28;20045;-87
2022/11/22 04:10:11;;;;;;;34.75;20.25;;;4.70;99.90;;;;;;5050271;28;20052;-84
2022/11/22 04:12:37;;;;;;;35.55;19.70;;;5.50;99.90;;;;;;5063046;28;20048;-83
2022/11/22 04:15:06;;;;;;;39.42;20.67;;;5.10;99.90;;;;;;5043944;28;20060;-83
2022/11/22 04:17:46;;;;;;;37.35;19.00;;;4.80;99.90;;;;;;5022666;28;20033;-82
2022/11/22 04:23:08;;;;;;;33.58;19.45;;;4.80;99.90;;;;;;5057059;28;20037;-83
2022/11/22 04:25:36;;;;;;;34.08;19.95;;;4.80;99.90;;;;;;5041904;28;20037;-85
2022/11/22 04:28:03;;;;;;;37.20;20.60;;;4.80;99.90;;;;;;5035523;28;20040;-84
2022/11/22 04:33:15;;;;;;;30.52;20.02;;;4.80;99.90;;;;;;5042446;28;20036;-83
2022/11/22 04:35:41;;;;;;;36.70;20.35;;;4.90;99.90;;;;;;5039207;28;20044;-81
2022/11/22 04:38:07;;;;;;;34.00;20.00;;;4.90;99.90;;;;;;5041187;28;20044;-82
2022/11/22 04:40:33;;;;;;;33.33;20.20;;;4.90;99.90;;;;;;5025586;28;20515;-84
2022/11/22 04:45:43;;;;;;;;;;;4.90;99.90;;;;;;5059010;28;20175;-83
2022/11/22 04:48:11;;;;;;;31.60;19.33;;;4.90;99.90;;;;;;5038571;28;19965;-85
2022/11/22 04:53:25;;;;;;;35.47;19.73;;;5.30;99.90;;;;;;5053818;28;20037;-82
2022/11/22 04:55:51;;;;;;;31.48;19.23;;;5.00;99.90;;;;;;5055084;28;20045;-82
2022/11/22 04:58:17;;;;;;;32.50;19.35;;;5.20;99.90;;;;;;5036510;28;20056;-85
2022/11/22 05:00:43;;;;;;;37.92;20.98;;;5.00;99.90;;;;;;5055949;28;20041;-83
2022/11/22 05:03:09;;;;;;;35.58;21.60;;;5.10;99.90;;;;;;5055495;28;20128;-84
2022/11/22 05:05:37;;;;;;;31.17;19.95;;;5.10;99.90;;;;;;5041337;28;20076;-84
2022/11/22 05:08:04;;;;;;;32.28;18.90;;;5.10;99.90;;;;;;5060987;28;20037;-83
2022/11/22 05:11:12;;;;;;;36.92;21.55;;;5.10;99.90;;;;;;5035784;28;20063;-84
2022/11/22 05:13:21;;;;;;;34.33;19.88;;;5.10;99.90;;;;;;5050399;28;20041;-83
2022/11/22 05:15:47;;;;;;;33.92;20.63;;;5.20;99.90;;;;;;5057116;28;20040;-83
2022/11/22 05:18:13;;;;;;;32.72;20.80;;;5.20;99.90;;;;;;5018089;28;20640;-83
2022/11/22 05:20:38;;;;;;;36.97;21.05;;;5.20;99.90;;;;;;5023905;28;20109;-83
2022/11/22 05:25:49;;;;;;;38.70;20.95;;;5.70;99.90;;;;;;5068321;28;20104;-83
2022/11/22 05:28:15;;;;;;;41.08;21.63;;;5.50;99.90;;;;;;5033583;28;20079;-85
2022/11/22 05:30:41;;;;;;;33.25;18.45;;;5.20;99.90;;;;;;5046341;28;20044;-83
2022/11/22 05:33:07;;;;;;;38.13;21.05;;;5.30;99.90;;;;;;5039600;28;20060;-80
2022/11/22 05:35:33;;;;;;;37.75;21.45;;;5.30;99.90;;;;;;5041803;28;20024;-83
2022/11/22 05:37:58;;;;;;;33.55;19.20;;;5.30;99.90;;;;;;5021573;28;20102;-83
2022/11/22 05:40:25;;;;;;;33.25;20.80;;;5.30;99.90;;;;;;5020856;28;20036;-80
2022/11/22 05:42:51;;;;;;;32.72;20.10;;;6.30;99.90;;;;;;5054550;28;20091;-83
2022/11/22 05:45:18;;;;;;;35.65;19.27;;;5.40;99.90;;;;;;5017360;28;20065;-83
2022/11/22 05:47:44;;;;;;;33.75;20.63;;;5.30;99.90;;;;;;5020081;28;20064;-83
2022/11/22 05:50:11;;;;;;;32.55;19.10;;;5.40;99.90;;;;;;5039161;28;20072;-82
2022/11/22 05:52:36;;;;;;;35.95;19.85;;;6.30;99.90;;;;;;5035835;28;20520;-84
2022/11/22 05:55:02;;;;;;;34.92;19.27;;;5.40;99.90;;;;;;5037591;28;20036;-83
2022/11/22 05:57:28;;;;;;;34.53;18.70;;;5.40;99.90;;;;;;5063217;28;20033;-83
2022/11/22 05:59:53;;;;;;;31.02;19.20;;;5.40;99.90;;;;;;5017975;28;20052;-82
2022/11/22 06:02:19;;;;;;;37.70;19.98;;;5.50;99.90;;;;;;5021959;28;20503;-83
2022/11/22 06:04:45;;;;;;;35.67;19.92;;;6.30;99.90;;;;;;5038359;28;20382;-85
2022/11/22 06:07:11;;;;;;;37.45;21.00;;;5.50;99.90;;;;;;5022521;28;20041;-83
2022/11/22 06:09:37;;;;;;;31.42;19.05;;;5.60;99.90;;;;;;5024545;28;20037;-82
2022/11/22 06:12:03;;;;;;;36.88;20.05;;;5.50;99.90;;;;;;5057461;28;20033;-81
2022/11/22 06:14:28;;;;;;;28.98;18.85;;;5.50;99.90;;;;;;5039328;28;20045;-83
2022/11/22 06:16:54;;;;;;;31.27;20.05;;;5.60;99.90;;;;;;5029274;28;20037;-84
2022/11/22 06:19:20;;;;;;;31.48;19.25;;;6.40;99.90;;;;;;5025266;28;20032;-86
2022/11/22 06:21:46;;;;;;;30.67;18.42;;;5.60;99.90;;;;;;5026464;28;20044;-83
2022/11/22 06:24:11;;;;;;;33.47;18.17;;;5.50;99.90;;;;;;5023717;28;20044;-83
2022/11/22 06:26:37;;;;;;;32.28;18.25;;;5.50;99.90;;;;;;5039620;28;20097;-84
2022/11/22 06:29:03;;;;;;;34.67;18.80;;;5.50;99.90;;;;;;5038852;28;20437;-83
2022/11/22 06:31:29;;;;;;;25.55;17.48;;;5.50;99.90;;;;;;5006411;28;20034;-84
2022/11/22 06:33:58;;;;;;;27.80;17.05;;;5.50;99.90;;;;;;5020524;28;20151;-84
2022/11/22 06:36:28;;;;;;;33.47;17.70;;;5.40;99.90;;;;;;5019628;28;20043;-82
2022/11/22 06:38:54;;;;;;;27.50;16.55;;;5.50;99.90;;;;;;5033167;28;20041;-83
2022/11/22 06:41:25;;;;;;;27.60;16.58;;;5.60;99.90;;;;;;5020428;28;20033;-81
2022/11/22 06:43:52;;;;;;;28.45;16.23;;;5.40;99.90;;;;;;5052601;28;20037;-82
2022/11/22 06:46:21;;;;;;;28.80;16.35;;;5.40;99.90;;;;;;5047945;28;20033;-84
2022/11/22 06:48:50;;;;;;;31.13;16.13;;;5.40;99.90;;;;;;5050310;28;20049;-84
2022/11/22 06:51:21;;;;;;;28.83;15.98;;;5.90;99.90;;;;;;5022153;28;20036;-83
2022/11/22 06:53:48;;;;;;;27.35;15.25;;;5.70;99.90;;;;;;5016321;28;20052;-81
2022/11/22 06:56:17;;;;;;;24.63;13.77;;;5.90;99.90;;;;;;5034738;28;20505;-85
2022/11/22 06:58:44;;;;;;;29.48;15.48;;;5.50;99.90;;;;;;5055914;28;20517;-85
2022/11/22 07:01:16;;;;;;;28.88;13.95;;;6.00;99.90;;;;;;5034565;28;20041;-82
2022/11/22 07:03:42;;;;;;;27.92;14.00;;;6.20;99.90;;;;;;5051819;28;20041;-83
2022/11/22 07:06:10;;;;;;;25.73;13.18;;;5.50;99.90;;;;;;5034238;28;20133;-83
2022/11/22 07:08:36;;;;;;;29.95;13.57;;;6.10;99.90;;;;;;5034769;28;20036;-83
2022/11/22 07:11:11;;;;;;;26.95;13.07;;;5.50;99.90;;;;;;5038536;28;20097;-84
2022/11/22 07:13:40;;;;;;;30.73;12.85;;;5.90;99.90;;;;;;5038087;28;20059;-82
2022/11/22 07:16:10;;;;;;;31.15;12.88;;;5.50;99.90;;;;;;5032077;28;20300;-84
2022/11/22 07:18:36;;;;;;;24.55;13.23;;;6.30;99.90;;;;;;5025828;28;20048;-83
2022/11/22 07:21:23;;;;;;;22.40;11.93;;;5.50;99.90;;;;;;5032430;28;20037;-83
2022/11/22 07:23:54;;;;;;;21.30;10.55;;;5.50;99.90;;;;;;5034151;28;20044;-83
2022/11/22 07:26:22;;;;;;;22.88;11.38;;;5.50;99.90;;;;;;5048028;28;20033;-84
2022/11/22 07:28:48;;;;;;;25.15;12.50;;;6.50;99.90;;;;;;5031417;28;20146;-84
2022/11/22 07:31:18;;;;;;;22.38;10.50;;;5.70;99.90;;;;;;5028867;28;20049;-83
2022/11/22 07:33:50;;;;;;;23.52;10.13;;;5.70;99.90;;;;;;5046622;28;20056;-84
2022/11/22 07:36:21;;;;;;;25.95;10.52;;;4.80;99.90;;;;;;5049648;28;20036;-84
2022/11/22 07:38:47;;;;;;;25.45;10.32;;;6.40;99.90;;;;;;5033477;28;20048;-85
2022/11/22 07:41:14;;;;;;;19.15;9.52;;;6.60;99.90;;;;;;5054440;28;20098;-84
2022/11/22 07:43:40;;;;;;;25.90;9.45;;;6.00;99.90;;;;;;5027945;28;20040;-85
2022/11/22 07:46:12;;;;;;;22.60;10.52;;;5.50;99.90;;;;;;5026705;28;20106;-85
2022/11/22 07:48:37;;;;;;;19.08;8.35;;;6.40;99.90;;;;;;5032087;28;20045;-84
2022/11/22 07:51:07;;;;;;;22.65;9.43;;;5.50;99.90;;;;;;5013035;28;20068;-82
2022/11/22 07:53:33;;;;;;;19.42;8.23;;;5.50;99.90;;;;;;5051435;28;20041;-84
2022/11/22 07:56:03;;;;;;;23.92;8.60;;;5.40;99.90;;;;;;5050165;28;20515;-83
2022/11/22 07:58:29;;;;;;;28.65;8.60;;;5.40;99.90;;;;;;5013562;28;20057;-84
2022/11/22 08:00:54;;;;;;;25.33;8.00;;;5.40;99.90;;;;;;5016667;28;20128;-83
2022/11/22 08:03:20;;;;;;;17.73;7.75;;;6.10;99.90;;;;;;5016694;28;20045;-84
2022/11/22 08:05:46;;;;;;;20.05;7.95;;;5.30;99.90;;;;;;5031114;28;20045;-84
2022/11/22 08:08:11;;;;;;;18.52;7.68;;;5.30;99.90;;;;;;5017329;28;20112;-85
2022/11/22 08:10:37;;;;;;;15.32;6.85;;;6.20;99.90;;;;;;5000088;28;20037;-85
2022/11/22 08:13:04;;;;;;;21.73;7.65;;;5.90;99.90;;;;;;4999326;28;20033;-82
2022/11/22 08:15:31;;;;;;;22.75;6.38;;;5.30;99.90;;;;;;5049601;28;20060;-84
2022/11/22 08:17:58;;;;;;;18.00;6.65;;;5.00;99.90;;;;;;5032101;28;20045;-83
2022/11/22 08:20:23;;;;;;;18.92;7.55;;;5.80;99.90;;;;;;5022377;28;20021;-86
2022/11/22 08:22:49;;;;;;;15.38;6.57;;;6.20;99.90;;;;;;5055006;28;20047;-87
2022/11/22 08:25:15;;;;;;;13.50;6.22;;;6.50;99.90;;;;;;5057125;28;20033;-86
2022/11/22 08:27:42;;;;;;;21.67;5.80;;;5.40;99.90;;;;;;5051566;28;20037;-83
2022/11/22 08:30:09;;;;;;;17.38;5.88;;;5.40;99.90;;;;;;5040443;28;20132;-82
2022/11/22 08:32:35;;;;;;;17.63;6.43;;;5.50;99.90;;;;;;5038391;28;20560;-83
2022/11/22 08:35:01;;;;;;;18.80;5.65;;;5.50;99.90;;;;;;5040094;28;20041;-84
2022/11/22 08:37:27;;;;;;;12.68;5.47;;;5.40;99.90;;;;;;5011547;28;20103;-83
2022/11/22 08:39:52;;;;;;;23.05;5.68;;;5.60;99.90;;;;;;5043227;28;20241;-83
2022/11/22 08:42:20;;;;;;;19.33;6.30;;;5.50;99.90;;;;;;5036422;28;20036;-84
2022/11/22 08:44:49;;;;;;;21.63;5.75;;;6.30;99.90;;;;;;5024168;28;20452;-84
2022/11/22 08:47:15;;;;;;;20.90;5.70;;;5.50;99.90;;;;;;5028849;28;20060;-83
2022/11/22 08:49:41;;;;;;;15.68;6.00;;;5.50;99.90;;;;;;5042217;28;20048;-85
2022/11/22 08:52:06;;;;;;;13.73;5.95;;;6.00;99.90;;;;;;5006536;28;20033;-84
2022/11/22 08:54:32;;;;;;;13.18;5.30;;;5.50;99.90;;;;;;5044797;28;20501;-84
2022/11/22 08:56:58;;;;;;;12.13;5.35;;;5.50;99.90;;;;;;5041208;28;20037;-85
2022/11/22 08:59:27;;;;;;;16.88;6.45;;;5.50;99.90;;;;;;5024229;28;20045;-85
2022/11/22 09:02:08;;;;;;;15.77;5.13;;;5.20;99.90;;;;;;5051687;28;20183;-84
2022/11/22 09:04:37;;;;;;;20.65;5.75;;;5.50;99.90;;;;;;5043048;28;20041;-82
2022/11/22 09:07:05;;;;;;;18.02;5.03;;;6.00;99.90;;;;;;5042179;28;20076;-84
2022/11/22 09:09:31;;;;;;;15.30;6.20;;;5.50;99.90;;;;;;5042105;28;20123;-81
2022/11/22 09:11:57;;;;;;;13.60;4.95;;;6.60;99.90;;;;;;5046809;28;20063;-84
2022/11/22 09:14:44;;;;;;;;;;;;;;;;;;;;;
2022/11/22 09:17:15;;;;;;;12.63;5.28;;;5.50;99.90;;;;;;5044585;28;20421;-83
2022/11/22 09:19:44;;;;;;;15.70;5.65;;;6.10;99.90;;;;;;5063076;28;20045;-83
2022/11/22 09:22:10;;;;;;;15.40;4.72;;;5.50;99.90;;;;;;5033182;28;20053;-84
2022/11/22 09:24:36;;;;;;;15.88;4.43;;;5.80;99.90;;;;;;5026133;28;20052;-84
2022/11/22 09:27:01;;;;;;;10.45;4.53;;;6.10;99.90;;;;;;5041898;28;20045;-83
2022/11/22 09:29:27;;;;;;;15.55;4.72;;;5.60;99.90;;;;;;5014492;28;20056;-84
2022/11/22 09:31:54;;;;;;;12.90;4.20;;;6.10;99.90;;;;;;5021608;28;20033;-84
2022/11/22 09:34:20;;;;;;;12.70;4.70;;;5.60;99.90;;;;;;5040568;28;20032;-81
2022/11/22 09:36:46;;;;;;;13.90;4.75;;;5.80;99.90;;;;;;5039925;28;20524;-84
2022/11/22 09:39:12;;;;;;;8.93;3.83;;;5.60;99.90;;;;;;5059933;28;20045;-84
2022/11/22 09:42:14;;;;;;;13.65;4.20;;;5.80;99.90;;;;;;5043233;28;20039;-84
2022/11/22 09:44:46;;;;;;;12.82;4.65;;;5.60;99.90;;;;;;5047198;28;20405;-84
2022/11/22 09:47:25;;;;;;;13.25;4.95;;;5.70;99.90;;;;;;5043448;28;20299;-84
2022/11/22 09:50:15;;;;;;;10.70;4.38;;;6.30;99.90;;;;;;5044451;28;20033;-84
2022/11/22 09:53:10;;;;;;;8.10;4.63;;;5.70;99.90;;;;;;5043404;28;20044;-84
2022/11/22 09:55:48;;;;;;;17.05;4.20;;;5.70;99.90;;;;;;5029109;28;20102;-84
2022/11/22 09:58:37;;;;;;;12.27;4.32;;;5.70;99.90;;;;;;5066713;28;20052;-84
2022/11/22 10:01:30;;;;;;;18.17;4.55;;;5.70;99.90;;;;;;5045336;28;20044;-84
2022/11/22 10:04:20;;;;;;;9.95;3.88;;;5.70;99.90;;;;;;5043848;28;20052;-83
2022/11/22 10:06:52;;;;;;;15.90;4.55;;;5.70;99.90;;;;;;5033472;28;20497;-83
2022/11/22 10:09:29;;;;;;;11.38;3.97;;;5.80;99.90;;;;;;5045937;28;20037;-83
2022/11/22 10:12:04;;;;;;;14.85;4.15;;;5.80;99.90;;;;;;5050630;28;20048;-84
2022/11/22 10:14:54;;;;;;;11.10;3.88;;;5.90;99.90;;;;;;5032278;28;20053;-83
2022/11/22 10:17:55;;;;;;;12.77;3.97;;;5.90;99.90;;;;;;5047215;28;20040;-84
2022/11/22 10:20:30;;;;;;;10.98;3.72;;;5.90;99.90;;;;;;5040504;28;20114;-83
2022/11/22 10:22:57;;;;;;;5.88;3.58;;;6.00;99.90;;;;;;5035381;28;20542;-83
2022/11/22 10:25:42;;;;;;;11.05;3.70;;;5.90;99.90;;;;;;5035893;28;20049;-84
2022/11/22 10:28:27;;;;;;;10.05;3.92;;;6.00;99.90;;;;;;5048879;28;20077;-85
2022/11/22 10:31:22;;;;;;;10.15;3.15;;;6.00;99.90;;;;;;5035496;28;20037;-83
2022/11/22 10:34:04;;;;;;;9.13;3.80;;;6.00;99.90;;;;;;5052096;28;20236;-86
2022/11/22 10:37:01;;;;;;;14.00;3.53;;;6.00;99.90;;;;;;5070213;28;20089;-83
2022/11/22 10:39:56;;;;;;;9.25;3.70;;;6.00;99.90;;;;;;5052763;28;20025;-84
2022/11/22 10:42:56;;;;;;;13.07;3.47;;;6.10;99.90;;;;;;5020899;28;20072;-83
2022/11/22 10:45:28;;;;;;;9.13;3.53;;;6.10;99.90;;;;;;5037398;28;20142;-84
2022/11/22 10:48:27;;;;;;;10.02;4.05;;;6.10;99.90;;;;;;5035237;28;20060;-84
2022/11/22 10:51:18;;;;;;;12.63;3.42;;;6.10;99.90;;;;;;5052545;28;20063;-82
2022/11/22 10:54:08;;;;;;;11.45;3.67;;;6.10;99.90;;;;;;5034833;28;20049;-84
2022/11/22 10:56:37;;;;;;;13.32;3.75;;;6.20;99.90;;;;;;5051300;28;20044;-83
2022/11/22 10:59:39;;;;;;;10.88;3.53;;;6.20;99.90;;;;;;5035033;28;20037;-86
2022/11/22 11:06:36;;;;;;;;;;;;;;;;;;;;;
2022/11/22 11:17:48;;;;;;;9.82;3.47;;;6.30;99.90;;;;;;5047384;28;20521;-60
2022/11/22 11:20:35;;;;;;;6.63;3.00;;;6.30;99.90;;;;;;5055104;28;20128;-58
2022/11/22 11:23:00;;;;;;;10.60;2.90;;;6.30;99.90;;;;;;5052791;28;20534;-61
2022/11/22 11:25:28;;;;;;;6.30;2.50;;;6.40;99.90;;;;;;5050698;28;20047;-61
2022/11/22 11:27:58;;;;;;;11.68;2.95;;;6.40;99.90;;;;;;5039001;28;20036;-60
2022/11/22 11:30:23;;;;;;;7.60;2.65;;;6.50;99.90;;;;;;5052312;28;20128;-61
2022/11/22 11:32:52;;;;;;;8.10;2.92;;;6.60;99.90;;;;;;5048757;28;20116;-60
2022/11/22 11:35:21;;;;;;;6.95;2.10;;;6.70;99.90;;;;;;5059616;28;20241;-61
2022/11/22 11:37:47;;;;;;;6.78;2.30;;;6.80;99.90;;;;;;5055355;28;20044;-60
2022/11/22 11:40:30;;;;;;;7.70;2.38;;;6.80;99.90;;;;;;5045663;28;20538;-61
2022/11/22 11:43:28;;;;;;;7.53;2.85;;;6.80;99.90;;;;;;5061149;28;20029;-60
2022/11/22 11:46:09;;;;;;;10.80;3.35;;;6.90;99.90;;;;;;5031098;28;20059;-59
2022/11/22 11:48:42;;;;;;;6.32;2.42;;;6.80;99.90;;;;;;5047279;28;20044;-61
2022/11/22 11:51:16;;;;;;;4.60;2.22;;;6.80;99.90;;;;;;5055061;28;20041;-59
2022/11/22 11:54:04;;;;;;;10.27;2.33;;;6.90;99.90;;;;;;5060219;28;20072;-59
2022/11/22 11:56:33;;;;;;;6.93;2.47;;;6.80;99.90;;;;;;5052500;28;20318;-58
2022/11/22 11:59:06;;;;;;;6.00;2.22;;;6.80;99.90;;;;;;5034563;28;20044;-61
2022/11/22 12:01:34;;;;;;;8.23;2.53;;;6.90;99.90;;;;;;5039060;28;20560;-61
2022/11/22 12:04:03;;;;;;;5.78;2.22;;;6.90;99.90;;;;;;5047496;28;20415;-58
2022/11/22 12:06:31;;;;;;;9.50;3.00;;;6.90;99.90;;;;;;5055297;28;20330;-61
2022/11/22 12:08:59;;;;;;;7.72;2.25;;;6.90;99.90;;;;;;5057562;28;20087;-59
2022/11/22 12:11:45;;;;;;;8.02;1.92;;;6.90;99.90;;;;;;5059378;28;20045;-59
2022/11/22 12:14:14;;;;;;;9.38;2.53;;;6.90;99.90;;;;;;5042748;28;20237;-59
2022/11/22 12:16:47;;;;;;;3.97;1.85;;;6.90;99.90;;;;;;5041455;28;20696;-62
2022/11/22 12:19:48;;;;;;;5.88;2.25;;;7.00;99.90;;;;;;5046609;28;22696;-60
2022/11/22 12:22:24;;;;;;;5.93;2.03;;;7.00;99.90;;;;;;5060557;28;20403;-60
2022/11/22 12:25:23;;;;;;;7.32;2.85;;;7.00;99.90;;;;;;5049855;28;20045;-59
2022/11/22 12:27:49;;;;;;;7.45;1.98;;;7.00;99.90;;;;;;5023134;28;20063;-61
2022/11/22 12:30:16;;;;;;;7.18;1.58;;;6.90;99.90;;;;;;5035901;28;20037;-61
2022/11/22 12:32:59;;;;;;;8.95;1.67;;;7.00;99.90;;;;;;5039976;28;20163;-60
2022/11/22 12:35:26;;;;;;;8.00;2.33;;;7.00;99.90;;;;;;5040104;28;20040;-58
2022/11/22 12:38:19;;;;;;;5.97;1.83;;;7.00;99.90;;;;;;5046472;28;20056;-61
2022/11/22 12:40:49;;;;;;;5.88;1.63;;;7.00;99.90;;;;;;5027964;28;20033;-60
2022/11/22 12:43:34;;;;;;;7.72;2.13;;;7.00;99.90;;;;;;5038293;28;20041;-61
2022/11/22 12:46:32;;;;;;;8.07;1.90;;;7.00;99.90;;;;;;5037698;28;20041;-59
2022/11/22 12:49:10;;;;;;;7.57;2.05;;;7.00;99.90;;;;;;5041691;28;20080;-61
2022/11/22 12:51:54;;;;;;;7.78;1.90;;;7.00;99.90;;;;;;5037340;28;20500;-60
2022/11/22 12:54:28;;;;;;;5.65;2.13;;;7.00;99.90;;;;;;5042855;28;20655;-60
2022/11/22 12:56:58;;;;;;;6.82;1.95;;;7.10;99.90;;;;;;5042983;28;20040;-59
2022/11/22 12:59:42;;;;;;;7.88;2.20;;;7.00;99.90;;;;;;5049342;28;20107;-58
2022/11/22 13:02:39;;;;;;;9.45;2.08;;;7.00;99.90;;;;;;5033369;28;20439;-58
2022/11/22 13:05:16;;;;;;;4.97;2.25;;;7.10;99.90;;;;;;5031476;28;20054;-61
2022/11/22 13:08:16;;;;;;;6.05;2.08;;;7.10;99.90;;;;;;5035756;28;20503;-60
2022/11/22 13:11:03;;;;;;;10.38;2.42;;;7.10;99.90;;;;;;5035300;28;20064;-58
2022/11/22 13:13:35;;;;;;;7.78;2.10;;;7.10;99.90;;;;;;5037998;28;20036;-60
2022/11/22 13:16:02;;;;;;;6.63;1.70;;;7.10;99.90;;;;;;5031768;28;20061;-60
2022/11/22 13:18:35;;;;;;;10.13;1.92;;;7.10;99.90;;;;;;5043426;28;20120;-62
2022/11/22 13:21:04;;;;;;;5.13;1.90;;;7.10;99.90;;;;;;5049025;28;20037;-59
2022/11/22 13:24:06;;;;;;;5.35;2.15;;;7.10;99.90;;;;;;5041599;28;20080;-61
2022/11/22 13:26:57;;;;;;;6.63;2.20;;;7.20;99.90;;;;;;5047390;28;20344;-62
2022/11/22 13:29:25;;;;;;;8.15;2.13;;;7.20;99.90;;;;;;5041856;28;20044;-62
2022/11/22 13:32:03;;;;;;;7.57;2.00;;;7.20;99.90;;;;;;5037833;28;20041;-59